Time;durP1;ratioP1;P1;durP2;ratioP2;P2;SDS_P1;SDS_P2;PMS_P1;PMS_P2;Temp;Humidity;BMP_temperature;BMP_pressure;BME280_temperature;BME280_humidity;BME280_pressure;Samples;Min_cycle;Max_cycle;Signal;HPM_P1;HPM_P2
2022/08/08 00:02:31;;;;;;;7.35;3.78;;;14.80;99.90;;;;;;5064131;28;20104;-55
2022/08/08 00:05:15;;;;;;;6.75;3.80;;;14.80;99.90;;;;;;5063265;28;20053;-53
2022/08/08 00:07:56;;;;;;;8.55;4.25;;;14.60;99.90;;;;;;5064104;28;20037;-53
2022/08/08 00:10:45;;;;;;;7.75;3.92;;;14.70;99.90;;;;;;5063623;28;20036;-55
2022/08/08 00:13:28;;;;;;;7.82;4.15;;;14.60;99.90;;;;;;5050503;28;20059;-53
2022/08/08 00:16:00;;;;;;;9.15;4.05;;;13.80;99.90;;;;;;5063528;28;20037;-54
2022/08/08 00:18:43;;;;;;;7.40;4.00;;;14.50;99.90;;;;;;5063648;28;20032;-54
2022/08/08 00:21:15;;;;;;;8.10;3.97;;;14.50;99.90;;;;;;5063231;28;20037;-54
2022/08/08 00:23:54;;;;;;;10.30;4.18;;;14.60;99.90;;;;;;5045386;28;20037;-55
2022/08/08 00:26:30;;;;;;;7.25;3.97;;;14.50;99.90;;;;;;5063681;28;20033;-55
2022/08/08 00:29:02;;;;;;;7.35;4.20;;;14.50;99.90;;;;;;5063145;28;20310;-55
2022/08/08 00:31:33;;;;;;;9.18;4.10;;;14.40;99.90;;;;;;5063762;28;20100;-55
2022/08/08 00:37:38;;;;;;;11.60;4.10;;;14.30;99.90;;;;;;5063699;28;20107;-53
2022/08/08 00:40:19;;;;;;;9.63;4.68;;;14.20;99.90;;;;;;5062961;28;20047;-52
2022/08/08 00:42:58;;;;;;;7.90;4.32;;;14.30;99.90;;;;;;5045145;28;20063;-54
2022/08/08 00:45:36;;;;;;;11.05;4.30;;;14.20;99.90;;;;;;5063465;28;20139;-54
2022/08/08 00:48:26;;;;;;;8.32;4.20;;;14.20;99.90;;;;;;5044822;28;20036;-54
2022/08/08 00:51:08;;;;;;;7.03;4.00;;;14.10;99.90;;;;;;5062811;28;20043;-54
2022/08/08 00:54:19;;;;;;;9.25;4.20;;;13.80;99.90;;;;;;5063274;28;20214;-54
2022/08/08 00:57:22;;;;;;;6.72;4.00;;;14.00;99.90;;;;;;5053035;28;20045;-54
2022/08/08 01:00:06;;;;;;;9.13;4.20;;;13.70;99.90;;;;;;5062816;28;20033;-53
2022/08/08 01:02:43;;;;;;;9.38;4.70;;;13.90;99.90;;;;;;5054983;28;20040;-54
2022/08/08 01:05:18;;;;;;;8.25;4.45;;;13.90;99.90;;;;;;5043012;28;20322;-54
2022/08/08 01:07:52;;;;;;;9.45;4.50;;;14.10;99.90;;;;;;5051935;28;20072;-54
2022/08/08 01:10:25;;;;;;;9.38;4.68;;;13.80;99.90;;;;;;5044023;28;20037;-54
2022/08/08 01:13:20;;;;;;;6.28;4.53;;;13.60;99.90;;;;;;5042652;28;20042;-54
2022/08/08 01:16:30;;;;;;;9.52;4.43;;;13.80;99.90;;;;;;5042550;28;20040;-55
2022/08/08 01:19:38;;;;;;;6.53;4.35;;;13.80;99.90;;;;;;5057439;28;20033;-53
2022/08/08 01:22:40;;;;;;;6.90;4.28;;;13.90;99.90;;;;;;5028399;28;20049;-52
2022/08/08 01:25:36;;;;;;;7.82;4.28;;;13.40;99.90;;;;;;5062769;28;20043;-55
2022/08/08 01:28:10;;;;;;;8.98;4.40;;;13.50;99.90;;;;;;5062693;28;20318;-54
2022/08/08 01:30:54;;;;;;;9.90;4.65;;;13.50;99.90;;;;;;5062873;28;20064;-53
2022/08/08 01:33:49;;;;;;;6.00;4.55;;;13.50;99.90;;;;;;5064266;28;20082;-54
2022/08/08 01:36:15;;;;;;;8.05;4.38;;;;;;;;;;5011708;28;20049;-53
2022/08/08 01:39:05;;;;;;;8.60;4.18;;;14.10;99.90;;;;;;5046192;28;20215;-55
2022/08/08 01:41:31;;;;;;;7.53;4.30;;;;;;;;;;5047035;28;20219;-54
2022/08/08 01:44:02;;;;;;;7.68;4.40;;;13.40;99.90;;;;;;5046328;28;20045;-54
2022/08/08 01:46:39;;;;;;;8.23;4.30;;;13.60;99.90;;;;;;5046737;28;20037;-54
2022/08/08 01:49:21;;;;;;;8.82;4.60;;;13.50;99.90;;;;;;5046437;28;20112;-53
2022/08/08 01:52:12;;;;;;;7.05;4.53;;;13.40;99.90;;;;;;5046318;28;20199;-54
2022/08/08 01:55:07;;;;;;;6.93;4.45;;;13.20;99.90;;;;;;5036009;28;20041;-53
2022/08/08 01:58:08;;;;;;;6.68;4.57;;;13.70;99.90;;;;;;5028815;28;20038;-54
2022/08/08 02:00:57;;;;;;;6.65;4.40;;;13.10;99.90;;;;;;5046687;28;20087;-55
2022/08/08 02:03:48;;;;;;;6.30;4.68;;;13.90;99.90;;;;;;5046233;28;20033;-54
2022/08/08 02:06:51;;;;;;;8.70;4.43;;;13.30;99.90;;;;;;5046653;28;20065;-52
2022/08/08 02:09:55;;;;;;;12.13;5.05;;;13.10;99.90;;;;;;5053661;28;20029;-54
2022/08/08 02:12:40;;;;;;;8.43;4.97;;;13.00;99.90;;;;;;5048959;28;20103;-54
2022/08/08 02:15:25;;;;;;;9.57;5.63;;;13.50;99.90;;;;;;5065972;28;20159;-53
2022/08/08 02:18:20;;;;;;;8.65;5.78;;;13.30;99.90;;;;;;5065783;28;20033;-55
2022/08/08 02:23:56;;;;;;;11.45;6.88;;;12.90;99.90;;;;;;5047911;28;20041;-54
2022/08/08 02:26:37;;;;;;;9.90;7.10;;;13.40;99.90;;;;;;5066219;28;20295;-51
2022/08/08 02:29:25;;;;;;;10.55;6.80;;;12.80;99.90;;;;;;5065411;28;20198;-53
2022/08/08 02:32:21;;;;;;;8.68;7.00;;;12.90;99.90;;;;;;5065518;28;20211;-53
2022/08/08 02:34:50;;;;;;;9.38;6.90;;;12.80;99.90;;;;;;5065271;28;20044;-53
2022/08/08 02:37:29;;;;;;;9.55;7.20;;;12.70;99.90;;;;;;5065542;28;20040;-54
2022/08/08 02:40:29;;;;;;;10.60;6.88;;;12.90;99.90;;;;;;5065134;28;20040;-53
2022/08/08 02:43:20;;;;;;;11.93;7.90;;;12.80;99.90;;;;;;5038254;28;20238;-52
2022/08/08 02:45:51;;;;;;;10.15;7.45;;;12.70;99.90;;;;;;5046701;28;20207;-54
2022/08/08 02:48:31;;;;;;;9.32;7.07;;;12.70;99.90;;;;;;5047823;28;20311;-53
2022/08/08 02:51:15;;;;;;;10.75;6.70;;;12.40;99.90;;;;;;5046894;28;20033;-52
2022/08/08 02:53:50;;;;;;;9.43;6.85;;;12.80;99.90;;;;;;5065040;28;20319;-52
2022/08/08 02:56:57;;;;;;;15.38;6.97;;;12.80;99.90;;;;;;5065117;28;20140;-54
2022/08/08 02:59:41;;;;;;;;;;;12.90;99.90;;;;;;5017304;28;20052;-54
2022/08/08 03:02:21;;;;;;;8.90;6.53;;;12.00;99.90;;;;;;5064754;28;20212;-54
2022/08/08 03:05:08;;;;;;;13.98;6.43;;;12.80;99.90;;;;;;5064779;28;20063;-54
2022/08/08 03:07:50;;;;;;;8.13;6.10;;;12.80;99.90;;;;;;5065251;28;20044;-53
2022/08/08 03:10:37;;;;;;;9.40;6.20;;;12.80;99.90;;;;;;5047053;28;20037;-53
2022/08/08 03:13:28;;;;;;;8.55;5.80;;;12.80;99.90;;;;;;5064752;28;20204;-54
2022/08/08 03:16:06;;;;;;;10.43;6.28;;;12.60;99.90;;;;;;5064708;28;20094;-51
2022/08/08 03:18:37;;;;;;;12.05;6.32;;;12.80;99.90;;;;;;5047038;28;20033;-53
2022/08/08 03:21:02;;;;;;;9.23;6.07;;;12.80;99.90;;;;;;5046391;28;20306;-52
2022/08/08 03:23:31;;;;;;;10.23;6.15;;;12.90;99.90;;;;;;5047056;28;20066;-54
2022/08/08 03:25:57;;;;;;;7.20;5.13;;;12.80;99.90;;;;;;5030118;28;20036;-54
2022/08/08 03:28:34;;;;;;;8.52;5.63;;;12.70;99.90;;;;;;5064694;28;20318;-54
2022/08/08 03:33:16;;;;;;;9.52;5.88;;;12.70;99.90;;;;;;5064328;28;20052;-53
2022/08/08 03:33:46;;;;;;;8.50;5.22;;;12.80;99.90;;;;;;5063809;28;20033;-53
2022/08/08 03:36:13;;;;;;;7.88;5.90;;;12.60;99.90;;;;;;5047113;28;20032;-54
2022/08/08 03:38:39;;;;;;;13.73;6.28;;;12.80;99.90;;;;;;5064499;28;20029;-54
2022/08/08 03:41:05;;;;;;;9.43;5.97;;;12.80;99.90;;;;;;5046568;28;20384;-53
2022/08/08 03:43:31;;;;;;;8.48;5.78;;;12.60;99.90;;;;;;5064451;28;20028;-54
2022/08/08 03:45:57;;;;;;;10.40;6.20;;;12.60;99.90;;;;;;5063981;28;20322;-53
2022/08/08 15:20:18;;;;;;;3.40;1.63;;;23.40;77.70;;;;;;5085482;23;20073;-82
2022/08/08 15:22:44;;;;;;;3.95;1.67;;;23.20;81.00;;;;;;5043930;28;20084;-82
2022/08/08 15:25:18;;;;;;;7.65;1.60;;;23.20;78.00;;;;;;5027493;28;20052;-83
2022/08/08 15:27:50;;;;;;;4.22;1.60;;;;;;;;;;5028394;28;20060;-82
2022/08/08 15:30:19;;;;;;;5.05;1.70;;;;;;;;;;5028711;28;20049;-82
2022/08/08 15:33:14;;;;;;;9.95;1.80;;;23.20;78.70;;;;;;5045300;28;20074;-82
2022/08/08 15:35:42;;;;;;;5.57;1.60;;;23.20;83.80;;;;;;5062599;28;20077;-83
2022/08/08 15:38:09;;;;;;;2.40;1.42;;;23.10;83.70;;;;;;5061628;28;20516;-79
2022/08/08 15:40:40;;;;;;;3.53;1.70;;;23.20;84.20;;;;;;5062106;28;20047;-80
2022/08/08 15:43:06;;;;;;;4.15;1.80;;;;;;;;;;5027759;28;20048;-79
2022/08/08 15:45:37;;;;;;;2.90;1.58;;;23.10;82.90;;;;;;5060991;28;20037;-80
2022/08/08 15:48:05;;;;;;;4.13;1.70;;;23.10;89.00;;;;;;5043259;28;20057;-80
2022/08/08 15:53:35;;;;;;;2.42;1.40;;;26.10;84.30;;;;;;4983017;28;20097;-80
2022/08/08 15:56:01;;;;;;;3.83;1.60;;;23.00;82.00;;;;;;4998270;28;20038;-81
2022/08/08 15:58:30;;;;;;;4.38;1.55;;;23.10;83.70;;;;;;4998485;28;20062;-80
2022/08/08 16:00:56;;;;;;;4.63;1.52;;;;;;;;;;4982219;28;20054;-79
2022/08/08 16:03:24;;;;;;;3.75;1.40;;;23.00;79.90;;;;;;4998493;28;20073;-80
2022/08/08 16:05:50;;;;;;;5.55;1.60;;;26.20;85.20;;;;;;4998847;28;20146;-80
2022/08/08 16:08:16;;;;;;;3.42;1.23;;;24.80;82.30;;;;;;4981607;28;20053;-79
2022/08/08 16:10:50;;;;;;;4.65;1.40;;;26.00;82.10;;;;;;4981309;28;20662;-80
2022/08/08 16:13:16;;;;;;;5.68;1.63;;;25.60;84.70;;;;;;4980142;28;20460;-80
2022/08/08 16:15:45;;;;;;;5.07;1.40;;;25.30;82.90;;;;;;4980648;28;20089;-80
2022/08/08 16:18:20;;;;;;;4.38;1.50;;;;;;;;;;4981136;28;20074;-81
2022/08/08 16:20:46;;;;;;;;;;;23.60;78.40;;;;;;4997486;28;20049;-80
2022/08/08 16:23:11;;;;;;;4.28;1.70;;;22.80;79.00;;;;;;5017650;28;19921;-81
2022/08/08 16:25:40;;;;;;;4.55;1.65;;;;;;;;;;5038135;28;20042;-80
2022/08/08 16:28:05;;;;;;;4.05;1.33;;;22.70;78.50;;;;;;5021043;28;20045;-80
2022/08/08 16:30:31;;;;;;;3.70;1.50;;;22.00;86.80;;;;;;5021191;28;20091;-80
2022/08/08 16:32:57;;;;;;;4.43;1.73;;;22.70;80.40;;;;;;5037958;28;20085;-80
2022/08/08 16:35:23;;;;;;;3.35;1.38;;;;;;;;;;5038551;28;20564;-80
2022/08/08 16:37:49;;;;;;;4.20;1.45;;;22.70;78.40;;;;;;5038619;28;20042;-80
2022/08/08 16:40:15;;;;;;;3.17;1.30;;;;;;;;;;5004171;28;20061;-80
2022/08/08 16:42:41;;;;;;;5.40;1.50;;;;;;;;;;5038031;28;20041;-79
2022/08/08 16:45:14;;;;;;;2.80;1.50;;;22.90;80.50;;;;;;5038489;28;20045;-80
2022/08/08 16:47:42;;;;;;;3.83;1.30;;;22.90;80.00;;;;;;5038021;28;20448;-80
2022/08/08 16:50:14;;;;;;;4.50;1.50;;;22.90;79.90;;;;;;5002167;28;20343;-80
2022/08/08 16:52:48;;;;;;;2.85;1.38;;;21.50;82.10;;;;;;5036617;28;20442;-80
2022/08/08 16:55:14;;;;;;;3.65;1.50;;;;;;;;;;5036420;28;20125;-80
2022/08/08 16:57:39;;;;;;;4.70;1.60;;;23.00;80.30;;;;;;5018436;28;20488;-80
2022/08/08 17:00:06;;;;;;;3.92;1.58;;;22.90;83.20;;;;;;5015058;28;20046;-80
2022/08/08 17:02:32;;;;;;;5.03;1.60;;;23.00;83.50;;;;;;4998868;28;20057;-82
2022/08/08 17:05:02;;;;;;;7.03;1.50;;;23.60;86.40;;;;;;5016589;28;20402;-80
2022/08/08 17:07:31;;;;;;;4.68;1.80;;;25.00;88.40;;;;;;5017215;28;20041;-81
2022/08/08 17:10:06;;;;;;;3.95;1.38;;;22.80;88.40;;;;;;4999844;28;20049;-82
2022/08/08 17:12:32;;;;;;;3.42;1.63;;;;;;;;;;5016364;28;20045;-82
2022/08/08 17:15:05;;;;;;;3.97;1.52;;;22.50;88.80;;;;;;4998876;28;20045;-80
2022/08/08 17:17:31;;;;;;;9.35;1.73;;;;;;;;;;4997227;28;20080;-82
2022/08/08 17:19:59;;;;;;;2.75;1.55;;;22.30;89.50;;;;;;5016311;28;20498;-81
2022/08/08 17:22:29;;;;;;;5.65;1.50;;;21.00;91.00;;;;;;5016645;28;20061;-81
2022/08/08 17:25:07;;;;;;;7.90;1.70;;;22.10;92.50;;;;;;4999871;28;20045;-81
2022/08/08 17:27:35;;;;;;;3.50;1.50;;;20.30;91.60;;;;;;5016410;28;20042;-84
2022/08/08 17:30:02;;;;;;;8.63;1.95;;;;;;;;;;5016543;28;20522;-83
2022/08/08 17:32:30;;;;;;;5.63;1.70;;;22.00;92.10;;;;;;5017196;28;20077;-82
2022/08/08 17:34:56;;;;;;;13.45;1.73;;;;;;;;;;5001999;28;20049;-83
2022/08/08 17:37:25;;;;;;;5.68;1.80;;;21.90;92.40;;;;;;5002821;28;20045;-82
2022/08/08 17:39:55;;;;;;;6.22;1.73;;;;;;;;;;5000113;28;20105;-80
2022/08/08 17:42:29;;;;;;;3.42;1.52;;;23.80;93.70;;;;;;5016992;28;20070;-81
2022/08/08 17:44:58;;;;;;;7.13;1.70;;;22.20;97.80;;;;;;5015947;28;20038;-84
2022/08/08 17:47:37;;;;;;;4.05;1.80;;;22.00;93.90;;;;;;5017315;28;20076;-84
2022/08/08 17:50:06;;;;;;;8.60;1.70;;;22.60;97.90;;;;;;5017123;28;20046;-83
2022/08/08 17:52:42;;;;;;;8.20;1.73;;;22.00;94.60;;;;;;5017047;28;20042;-82
2022/08/08 17:55:10;;;;;;;4.00;1.60;;;24.50;97.40;;;;;;5017265;28;20398;-81
2022/08/08 17:57:42;;;;;;;3.70;1.65;;;23.40;95.70;;;;;;5018025;28;20104;-83
2022/08/08 18:00:08;;;;;;;5.18;1.85;;;19.20;94.70;;;;;;5018189;28;20461;-82
2022/08/08 18:02:40;;;;;;;3.65;1.50;;;21.80;94.40;;;;;;5017968;28;20073;-82
2022/08/08 18:05:14;;;;;;;6.60;1.50;;;21.60;96.50;;;;;;5000828;28;20038;-84
2022/08/08 18:07:43;;;;;;;4.13;1.70;;;21.60;94.20;;;;;;5017750;28;20406;-82
2022/08/08 18:10:29;;;;;;;5.85;1.80;;;21.40;96.80;;;;;;4999836;28;20052;-83
2022/08/08 18:12:57;;;;;;;4.95;1.60;;;21.40;96.20;;;;;;5000267;28;20056;-83
2022/08/08 18:15:26;;;;;;;3.60;1.70;;;21.40;95.60;;;;;;5001339;28;20046;-83
2022/08/08 18:17:54;;;;;;;2.88;1.70;;;21.30;98.60;;;;;;5021220;28;20042;-83
2022/08/08 18:20:20;;;;;;;4.57;2.00;;;;;;;;;;5019722;28;20488;-83
2022/08/08 18:22:46;;;;;;;5.15;1.80;;;21.30;97.80;;;;;;5021122;28;20482;-82
2022/08/08 18:25:14;;;;;;;5.80;1.55;;;21.80;99.90;;;;;;5020816;28;20048;-85
2022/08/08 18:27:43;;;;;;;4.03;1.50;;;;;;;;;;5020083;28;20054;-82
2022/08/08 18:30:09;;;;;;;3.53;1.80;;;21.10;99.90;;;;;;5020499;28;20513;-82
2022/08/08 18:32:42;;;;;;;3.75;1.80;;;21.10;99.90;;;;;;5003450;28;20046;-81
2022/08/08 18:35:13;;;;;;;4.38;1.77;;;21.00;99.90;;;;;;5019370;28;20037;-80
2022/08/08 18:37:39;;;;;;;5.00;1.90;;;;;;;;;;5003171;28;20105;-80
2022/08/08 18:40:05;;;;;;;6.88;1.88;;;21.00;99.90;;;;;;5002774;28;20078;-79
2022/08/08 18:42:35;;;;;;;4.53;1.85;;;21.00;99.90;;;;;;5003189;28;20085;-82
2022/08/08 18:45:03;;;;;;;6.45;1.90;;;21.20;99.90;;;;;;5002445;28;20124;-81
2022/08/08 18:47:31;;;;;;;4.95;1.80;;;;;;;;;;5002559;28;20057;-80
2022/08/08 18:50:02;;;;;;;7.57;1.90;;;;;;;;;;5002966;28;20050;-79
2022/08/08 18:52:34;;;;;;;4.60;1.90;;;20.60;99.90;;;;;;5020283;28;20371;-78
2022/08/08 18:55:03;;;;;;;5.70;1.98;;;20.60;99.90;;;;;;5019576;28;20042;-79
2022/08/08 18:57:32;;;;;;;4.45;1.75;;;20.40;99.90;;;;;;5019943;28;20046;-78
2022/08/08 18:59:59;;;;;;;6.20;2.10;;;19.90;99.90;;;;;;5038395;28;20041;-78
2022/08/08 19:02:25;;;;;;;5.72;1.92;;;;;;;;;;5038908;28;20049;-78
2022/08/08 19:04:51;;;;;;;4.05;1.80;;;22.20;99.90;;;;;;5004839;28;20100;-78
2022/08/08 19:07:21;;;;;;;6.53;1.90;;;20.90;99.90;;;;;;5038571;28;20041;-78
2022/08/08 19:09:48;;;;;;;3.92;1.80;;;21.70;99.90;;;;;;5038709;28;20359;-79
2022/08/08 19:12:14;;;;;;;8.00;1.80;;;21.70;99.90;;;;;;5021330;28;20584;-78
2022/08/08 19:14:40;;;;;;;8.75;2.00;;;20.00;99.90;;;;;;5020349;28;20038;-78
2022/08/08 19:17:06;;;;;;;5.40;1.80;;;19.90;99.90;;;;;;5037189;28;20042;-78
2022/08/08 19:19:38;;;;;;;5.13;1.98;;;19.80;99.90;;;;;;5037762;28;20059;-78
2022/08/08 19:22:04;;;;;;;6.15;1.73;;;19.80;99.90;;;;;;5020235;28;20079;-78
2022/08/08 19:24:31;;;;;;;7.55;1.75;;;19.70;99.90;;;;;;5041967;28;20052;-78
2022/08/08 19:27:00;;;;;;;6.43;1.90;;;19.30;99.90;;;;;;5006354;28;20107;-78
2022/08/08 19:29:25;;;;;;;10.82;1.88;;;22.00;99.90;;;;;;5040451;28;20046;-78
2022/08/08 19:31:51;;;;;;;6.03;1.80;;;19.50;99.90;;;;;;5041006;28;20133;-78
2022/08/08 19:34:20;;;;;;;9.32;1.90;;;19.40;99.90;;;;;;5040565;28;20045;-78
2022/08/08 19:36:45;;;;;;;3.67;1.63;;;19.30;99.90;;;;;;5023341;28;20422;-77
2022/08/08 19:39:11;;;;;;;4.43;1.80;;;19.20;99.90;;;;;;5023765;28;20041;-77
2022/08/08 19:41:37;;;;;;;7.00;1.90;;;19.20;99.90;;;;;;5023152;28;20049;-78
2022/08/08 19:44:05;;;;;;;3.13;1.70;;;21.70;99.90;;;;;;5020413;28;20041;-78
2022/08/08 19:46:31;;;;;;;5.75;2.47;;;19.00;99.90;;;;;;5003649;28;20125;-78
2022/08/08 19:48:57;;;;;;;4.82;1.95;;;18.90;99.90;;;;;;5021043;28;20081;-78
2022/08/08 19:51:25;;;;;;;4.88;1.80;;;18.90;99.90;;;;;;5021879;28;20038;-80
2022/08/08 19:53:51;;;;;;;7.00;1.70;;;20.10;99.90;;;;;;5020712;28;20042;-78
2022/08/08 19:56:17;;;;;;;4.07;1.80;;;;;;;;;;5021330;28;20072;-79
2022/08/08 19:58:44;;;;;;;6.85;1.75;;;18.70;99.90;;;;;;5033970;28;20129;-79
2022/08/08 20:01:10;;;;;;;5.43;1.90;;;18.40;99.90;;;;;;5041245;28;20049;-78
2022/08/08 20:03:36;;;;;;;4.75;2.00;;;18.60;99.90;;;;;;5023378;28;20052;-78
2022/08/08 20:06:01;;;;;;;4.20;1.80;;;19.20;99.90;;;;;;5023871;28;20056;-79
2022/08/08 20:08:29;;;;;;;4.82;2.10;;;18.50;99.90;;;;;;5022919;28;20061;-77
2022/08/08 20:10:59;;;;;;;6.47;2.20;;;21.20;99.90;;;;;;5022491;28;20056;-80
2022/08/08 20:13:25;;;;;;;9.68;2.00;;;18.40;99.90;;;;;;5023250;28;20037;-78
2022/08/08 20:15:53;;;;;;;5.70;2.00;;;18.40;99.90;;;;;;5040888;28;20055;-79
2022/08/08 20:18:19;;;;;;;9.60;2.22;;;;;;;;;;5041274;28;20367;-78
2022/08/08 20:20:45;;;;;;;6.22;2.10;;;;;;;;;;5022006;28;20454;-78
2022/08/08 20:23:11;;;;;;;7.47;2.40;;;;;;;;;;5039711;28;20041;-78
2022/08/08 20:25:37;;;;;;;4.00;2.17;;;18.10;99.90;;;;;;5005209;28;20124;-77
2022/08/08 20:28:03;;;;;;;4.10;2.17;;;18.10;99.90;;;;;;5039773;28;20069;-78
2022/08/08 20:30:31;;;;;;;5.05;2.55;;;18.00;99.90;;;;;;5040431;28;20053;-78
2022/08/08 20:32:59;;;;;;;7.75;2.17;;;18.00;99.90;;;;;;5040424;28;20381;-79
2022/08/08 20:35:28;;;;;;;5.97;2.40;;;17.80;99.90;;;;;;5039324;28;20126;-78
2022/08/08 20:37:53;;;;;;;9.50;2.50;;;18.10;99.90;;;;;;5010352;28;20088;-78
2022/08/08 20:40:19;;;;;;;6.55;2.30;;;17.70;99.90;;;;;;5005098;28;20049;-78
2022/08/08 20:42:52;;;;;;;5.28;2.10;;;20.50;99.90;;;;;;5039731;28;20050;-78
2022/08/08 20:45:21;;;;;;;8.25;2.40;;;17.70;99.90;;;;;;5039943;28;20053;-78
2022/08/08 20:47:47;;;;;;;5.10;2.30;;;20.10;99.90;;;;;;5039230;28;20045;-78
2022/08/08 20:50:14;;;;;;;5.53;2.30;;;17.40;99.90;;;;;;5038203;28;20045;-75
2022/08/08 20:52:40;;;;;;;6.22;2.50;;;17.80;99.90;;;;;;5038399;28;20044;-76
2022/08/08 20:55:09;;;;;;;5.22;2.30;;;17.50;99.90;;;;;;5037423;28;20400;-76
2022/08/08 20:57:35;;;;;;;7.13;2.55;;;16.30;99.90;;;;;;5039052;28;20120;-76
2022/08/08 21:00:03;;;;;;;7.20;2.50;;;18.20;99.90;;;;;;5021711;28;20049;-76
2022/08/08 21:02:28;;;;;;;5.68;2.20;;;17.80;99.90;;;;;;5039336;28;20489;-76
2022/08/08 21:04:56;;;;;;;5.20;2.17;;;17.20;99.90;;;;;;5039881;28;20081;-77
2022/08/08 21:07:22;;;;;;;10.55;2.50;;;16.50;99.90;;;;;;5039319;28;20041;-76
2022/08/08 21:09:47;;;;;;;7.70;2.60;;;17.20;99.90;;;;;;5039219;28;20053;-76
2022/08/08 21:12:13;;;;;;;7.15;2.60;;;17.30;99.90;;;;;;5037489;28;20494;-76
2022/08/08 21:14:39;;;;;;;6.75;2.25;;;;;;;;;;5038258;28;20072;-76
2022/08/08 21:17:09;;;;;;;5.47;2.67;;;17.20;99.90;;;;;;5021327;28;20077;-76
2022/08/08 21:19:37;;;;;;;8.70;2.92;;;17.20;99.90;;;;;;5038696;28;20054;-76
2022/08/08 21:22:07;;;;;;;7.82;2.97;;;17.20;99.90;;;;;;5038748;28;20076;-77
2022/08/08 21:24:33;;;;;;;8.98;2.72;;;17.10;99.90;;;;;;5038686;28;20120;-77
2022/08/08 21:27:01;;;;;;;7.50;2.70;;;17.00;99.90;;;;;;5039073;28;20053;-77
2022/08/08 21:29:27;;;;;;;6.05;2.70;;;;;;;;;;5038737;28;20401;-77
2022/08/08 21:31:53;;;;;;;4.28;2.42;;;17.00;99.90;;;;;;5037122;28;20041;-77
2022/08/08 21:34:19;;;;;;;7.57;2.65;;;17.30;99.90;;;;;;5037078;28;20375;-77
2022/08/08 21:36:50;;;;;;;5.93;2.60;;;17.20;99.90;;;;;;5037048;28;20088;-76
2022/08/08 21:39:24;;;;;;;6.82;2.72;;;16.50;99.90;;;;;;5019733;28;20432;-77
2022/08/08 21:41:50;;;;;;;5.53;2.40;;;17.30;99.90;;;;;;5037123;28;20053;-77
2022/08/08 21:44:16;;;;;;;4.20;2.55;;;16.40;99.90;;;;;;5036773;28;20053;-77
2022/08/08 21:46:42;;;;;;;6.82;2.90;;;17.50;99.90;;;;;;5036417;28;20042;-77
2022/08/08 21:49:09;;;;;;;6.13;2.80;;;16.90;99.90;;;;;;5036881;28;20038;-76
2022/08/08 21:51:37;;;;;;;7.88;3.20;;;16.80;99.90;;;;;;5038678;28;20064;-76
2022/08/08 21:54:03;;;;;;;7.22;2.72;;;;;;;;;;5040754;28;20049;-77
2022/08/08 21:56:32;;;;;;;7.25;3.00;;;16.80;99.90;;;;;;5022763;28;20042;-76
2022/08/08 21:58:58;;;;;;;8.10;2.92;;;17.30;99.90;;;;;;5022935;28;20046;-76
2022/08/08 22:01:24;;;;;;;5.70;3.00;;;16.70;99.90;;;;;;5022808;28;20505;-77
2022/08/08 22:03:51;;;;;;;7.53;3.15;;;16.70;99.90;;;;;;5039764;28;20041;-77
2022/08/08 22:06:17;;;;;;;9.63;3.03;;;16.50;99.90;;;;;;5039283;28;20045;-77
2022/08/08 22:08:43;;;;;;;6.00;3.00;;;;;;;;;;5040218;28;20038;-76
2022/08/08 22:11:11;;;;;;;5.43;3.05;;;16.40;99.90;;;;;;5040184;28;20079;-76
2022/08/08 22:13:37;;;;;;;6.80;3.20;;;16.60;99.90;;;;;;5040095;28;20045;-77
2022/08/08 22:16:02;;;;;;;5.80;3.22;;;16.50;99.90;;;;;;5022290;28;20172;-77
2022/08/08 22:18:30;;;;;;;7.90;3.25;;;16.50;99.90;;;;;;5040601;28;20500;-76
2022/08/08 22:20:58;;;;;;;6.35;3.28;;;16.40;99.90;;;;;;5038465;28;20409;-77
2022/08/08 22:23:24;;;;;;;6.35;3.35;;;16.30;99.90;;;;;;5040075;28;20083;-77
2022/08/08 22:25:49;;;;;;;9.48;3.45;;;16.40;99.90;;;;;;5005779;28;20041;-77
2022/08/08 22:28:17;;;;;;;5.07;3.42;;;;;;;;;;5040195;28;20049;-77
2022/08/08 22:30:46;;;;;;;6.10;3.35;;;;;;;;;;5039985;28;20509;-77
2022/08/08 22:33:14;;;;;;;8.95;3.60;;;;;;;;;;5039735;28;20097;-77
2022/08/08 22:35:50;;;;;;;11.55;3.80;;;16.20;99.90;;;;;;5039700;28;20045;-78
2022/08/08 22:38:17;;;;;;;9.70;3.67;;;16.30;99.90;;;;;;5038587;28;20054;-77
2022/08/08 22:40:46;;;;;;;7.10;3.70;;;18.20;99.90;;;;;;5039765;28;20494;-77
2022/08/08 22:43:12;;;;;;;7.45;3.65;;;16.40;99.90;;;;;;5039440;28;20045;-77
2022/08/08 22:45:38;;;;;;;7.72;3.78;;;16.70;99.90;;;;;;5039539;28;20045;-77
2022/08/08 22:48:04;;;;;;;7.45;4.00;;;16.10;99.90;;;;;;5039230;28;20080;-78
2022/08/08 22:50:37;;;;;;;8.07;3.90;;;16.10;99.90;;;;;;5039242;28;20374;-77
2022/08/08 22:53:05;;;;;;;8.45;3.75;;;15.80;99.90;;;;;;5039531;28;20077;-77
2022/08/08 22:55:34;;;;;;;8.05;3.97;;;16.10;99.90;;;;;;5039441;28;20116;-77
2022/08/08 22:58:01;;;;;;;9.40;4.00;;;16.00;99.90;;;;;;5021652;28;20115;-77
2022/08/08 23:00:37;;;;;;;8.00;4.22;;;16.00;99.90;;;;;;5039356;28;20096;-77
2022/08/08 23:03:03;;;;;;;9.45;4.20;;;;;;;;;;5038401;28;20037;-77
2022/08/08 23:05:34;;;;;;;8.38;3.83;;;16.00;99.90;;;;;;5039006;28;20076;-77
2022/08/08 23:08:00;;;;;;;6.72;3.95;;;;;;;;;;5005495;28;20042;-77
2022/08/08 23:10:26;;;;;;;9.52;4.30;;;15.90;99.90;;;;;;5039464;28;20081;-77
2022/08/08 23:12:52;;;;;;;11.27;4.40;;;16.00;99.90;;;;;;5038925;28;20469;-77
2022/08/08 23:15:19;;;;;;;10.27;4.63;;;16.40;99.90;;;;;;5037961;28;20037;-77
2022/08/08 23:17:46;;;;;;;7.82;3.90;;;14.90;99.90;;;;;;5039030;28;20053;-79
2022/08/08 23:20:12;;;;;;;11.48;4.50;;;15.70;99.90;;;;;;5021529;28;20045;-80
2022/08/08 23:22:57;;;;;;;8.75;4.35;;;15.80;99.90;;;;;;5038147;28;20049;-78
2022/08/08 23:25:25;;;;;;;8.43;4.15;;;;;;;;;;5038138;28;20547;-78
2022/08/08 23:28:00;;;;;;;7.85;4.35;;;15.30;99.90;;;;;;5038089;28;20042;-78
2022/08/08 23:30:26;;;;;;;8.52;4.25;;;15.80;99.90;;;;;;5038844;28;20056;-77
2022/08/08 23:33:09;;;;;;;8.20;4.45;;;15.20;99.90;;;;;;5038822;28;20042;-77
2022/08/08 23:35:35;;;;;;;7.93;4.38;;;;;;;;;;5038658;28;20393;-77
2022/08/08 23:38:01;;;;;;;11.55;4.30;;;;;;;;;;5020513;28;20049;-76
2022/08/08 23:40:27;;;;;;;8.32;4.57;;;;;;;;;;5038697;28;20041;-76
2022/08/08 23:43:02;;;;;;;7.32;4.30;;;15.50;99.90;;;;;;5038622;28;20052;-77
2022/08/08 23:45:37;;;;;;;8.00;4.47;;;15.50;99.90;;;;;;5039439;28;20116;-77
2022/08/08 23:48:02;;;;;;;7.57;4.40;;;15.00;99.90;;;;;;5037343;28;20037;-78
2022/08/08 23:50:28;;;;;;;9.77;4.80;;;;;;;;;;5038516;28;20153;-77
2022/08/08 23:52:54;;;;;;;7.53;4.40;;;15.30;99.90;;;;;;5038622;28;20493;-77
2022/08/08 23:55:25;;;;;;;6.07;4.32;;;15.60;99.90;;;;;;5038503;28;20037;-77
2022/08/08 23:57:51;;;;;;;8.48;4.88;;;;;;;;;;5036855;28;20045;-77
